Terminal Aerodrome Forecast
Issued by NWS

Home | Current Version | Previous Version | Text Only | Print | Product List | Glossary On
Versions: 1 2 3 4 5 6 7 8 9 10 11 12 13 14 15 16 17 18 19
000
FTUS45 KRIW 271700
TAFCPR
TAF
KCPR 271720Z 2718/2818 03012G18KT P6SM FEW110 SCT250
     FM280000 05014G20KT P6SM VCSH SCT070 BKN120
     FM280600 03011KT P6SM VCSH SCT012 OVC025
     FM281200 05013KT 5SM -SHRA BR SCT010 OVC020=

USA.gov is the U.S. government's official web portal to all federal, state and local government web resources and services.